Time;durP1;ratioP1;P1;durP2;ratioP2;P2;SDS_P1;SDS_P2;PMS_P1;PMS_P2;Temp;Humidity;BMP_temperature;BMP_pressure;BME280_temperature;BME280_humidity;BME280_pressure;Samples;Min_cycle;Max_cycle;Signal;HPM_P1;HPM_P2
2024/01/10 06:00:09;;;;;;;25.80;21.00;;;;;;;;;;1746169;28;20415;-76
2024/01/10 06:01:00;;;;;;;22.08;19.60;;;;;;;;;;1748295;28;20448;-75
2024/01/10 06:01:52;;;;;;;23.80;21.20;;;;;;;;;;1744649;28;20294;-75
2024/01/10 06:02:43;;;;;;;25.40;21.77;;;;;;;;;;1741355;28;20227;-77
2024/01/10 06:03:34;;;;;;;22.92;20.63;;;;;;;;;;1742238;28;20198;-76
2024/01/10 06:04:27;;;;;;;23.02;20.60;;;;;;;;;;1744838;28;20223;-75
2024/01/10 06:05:18;;;;;;;25.48;21.40;;;;;;;;;;1741955;28;20207;-75
2024/01/10 06:06:10;;;;;;;26.63;22.38;;;;;;;;;;1743990;28;20201;-78
2024/01/10 06:07:03;;;;;;;24.75;22.08;;;;;;;;;;1746006;28;20215;-78
2024/01/10 06:07:54;;;;;;;23.02;20.63;;;;;;;;;;1748526;28;20202;-78
2024/01/10 06:08:46;;;;;;;23.60;21.20;;;;;;;;;;1748999;28;20186;-78
2024/01/10 06:09:38;;;;;;;24.60;21.50;;;;;;;;;;1744025;28;20195;-78
2024/01/10 06:10:29;;;;;;;26.55;21.90;;;;;;;;;;1742331;28;20203;-78
2024/01/10 06:11:20;;;;;;;23.05;20.65;;;;;;;;;;1745732;28;20203;-79
2024/01/10 06:12:12;;;;;;;24.10;21.60;;;;;;;;;;1748564;28;20202;-78
2024/01/10 06:13:04;;;;;;;25.17;21.98;;;;;;;;;;1745968;28;20194;-78
2024/01/10 06:13:57;;;;;;;27.35;21.73;;;;;;;;;;1741465;28;20191;-80
2024/01/10 06:14:49;;;;;;;25.40;22.65;;;;;;;;;;1745057;28;20190;-79
2024/01/10 06:15:42;;;;;;;25.67;21.67;;;;;;;;;;1742693;28;20206;-79
2024/01/10 06:16:33;;;;;;;24.40;21.00;;;;;;;;;;1742383;28;20211;-80
2024/01/10 06:17:25;;;;;;;23.92;21.40;;;;;;;;;;1749058;28;20220;-79
2024/01/10 06:18:17;;;;;;;26.10;21.30;;;;;;;;;;1748468;28;20293;-79
2024/01/10 06:19:10;;;;;;;22.80;20.50;;;;;;;;;;1743059;28;20191;-79
2024/01/10 06:20:03;;;;;;;24.33;21.55;;;;;;;;;;1741641;28;20203;-79
2024/01/10 06:20:54;;;;;;;24.30;21.73;;;;;;;;;;1745140;28;20210;-79
2024/01/10 06:21:46;;;;;;;24.65;22.02;;;;;;;;;;1749157;28;20230;-79
2024/01/10 06:22:37;;;;;;;23.98;21.55;;;;;;;;;;1748607;28;20234;-79
2024/01/10 06:23:29;;;;;;;28.08;23.25;;;;;;;;;;1748433;28;20198;-80
2024/01/10 06:24:21;;;;;;;28.23;23.73;;;;;;;;;;1748660;28;20225;-79
2024/01/10 06:25:12;;;;;;;26.67;23.95;;;;;;;;;;1741832;28;20581;-78
2024/01/10 06:26:03;;;;;;;26.15;23.40;;;;;;;;;;1741752;28;20203;-77
2024/01/10 06:26:55;;;;;;;28.27;25.38;;;;;;;;;;1747800;28;20201;-77
2024/01/10 06:27:46;;;;;;;28.95;25.92;;;;;;;;;;1748561;28;20738;-77
2024/01/10 06:28:38;;;;;;;27.63;24.63;;;;;;;;;;1744765;28;20203;-78
2024/01/10 06:29:30;;;;;;;33.33;25.90;;;;;;;;;;1741638;28;20455;-78
2024/01/10 06:30:21;;;;;;;27.23;24.27;;;;;;;;;;1746173;28;21703;-78
2024/01/10 06:31:14;;;;;;;27.20;24.10;;;;;;;;;;1742383;28;20236;-78
2024/01/10 06:32:06;;;;;;;24.77;22.27;;;;;;;;;;1742508;28;20207;-78
2024/01/10 06:32:58;;;;;;;26.67;23.88;;;;;;;;;;1741403;28;20206;-78
2024/01/10 06:33:49;;;;;;;27.52;24.17;;;;;;;;;;1740916;28;20204;-78
2024/01/10 06:34:40;;;;;;;27.40;24.50;;;;;;;;;;1748952;28;20620;-78
2024/01/10 06:35:32;;;;;;;27.45;24.55;;;;;;;;;;1749015;28;20225;-78
2024/01/10 06:36:23;;;;;;;25.40;22.80;;;;;;;;;;1744868;28;20674;-78
2024/01/10 06:37:14;;;;;;;26.00;23.38;;;;;;;;;;1742282;28;20225;-78
2024/01/10 06:38:06;;;;;;;25.65;22.45;;;;;;;;;;1746292;28;20290;-78
2024/01/10 06:38:57;;;;;;;26.80;23.90;;;;;;;;;;1749563;28;20217;-78
2024/01/10 06:39:48;;;;;;;25.10;22.60;;;;;;;;;;1746314;28;20198;-78
2024/01/10 06:40:40;;;;;;;24.42;21.88;;;;;;;;;;1742079;28;20643;-78
2024/01/10 06:41:32;;;;;;;24.73;22.23;;;;;;;;;;1743022;28;20229;-78
2024/01/10 06:42:23;;;;;;;24.50;22.20;;;;;;;;;;1749086;28;20890;-78
2024/01/10 06:43:15;;;;;;;25.30;22.70;;;;;;;;;;1748660;28;20286;-77
2024/01/10 06:44:07;;;;;;;24.35;21.75;;;;;;;;;;1741569;28;20230;-77
2024/01/10 06:44:58;;;;;;;25.75;23.17;;;;;;;;;;1741264;28;20602;-78
2024/01/10 06:45:50;;;;;;;24.25;21.90;;;;;;;;;;1746411;28;20206;-80
2024/01/10 06:46:42;;;;;;;23.83;21.25;;;;;;;;;;1751203;28;20674;-80
2024/01/10 06:47:35;;;;;;;25.02;22.42;;;;;;;;;;1747710;28;20218;-80
2024/01/10 06:48:26;;;;;;;24.25;21.80;;;;;;;;;;1744864;28;20210;-80
2024/01/10 06:49:18;;;;;;;25.17;22.48;;;;;;;;;;1746437;28;20203;-80
2024/01/10 06:50:10;;;;;;;24.33;21.83;;;;;;;;;;1750769;28;20667;-79
2024/01/10 06:51:01;;;;;;;26.15;23.55;;;;;;;;;;1748925;28;20202;-78
2024/01/10 06:51:53;;;;;;;25.52;23.02;;;;;;;;;;1742510;28;20221;-78
2024/01/10 06:52:44;;;;;;;24.63;21.98;;;;;;;;;;1741426;28;20233;-77
2024/01/10 06:53:35;;;;;;;26.80;24.00;;;;;;;;;;1743887;28;20273;-79
2024/01/10 06:54:27;;;;;;;27.08;22.88;;;;;;;;;;1748912;28;20191;-78
2024/01/10 06:55:18;;;;;;;25.98;23.33;;;;;;;;;;1749079;28;20207;-78
2024/01/10 06:56:10;;;;;;;26.63;23.50;;;;;;;;;;1749214;28;20218;-79
2024/01/10 06:57:02;;;;;;;25.13;22.42;;;;;;;;;;1749282;28;20660;-79
2024/01/10 06:57:54;;;;;;;26.30;23.50;;;;;;;;;;1749428;28;20578;-78
2024/01/10 06:58:46;;;;;;;23.70;21.30;;;;;;;;;;1748591;28;20754;-78
2024/01/10 06:59:37;;;;;;;25.42;22.83;;;;;;;;;;1749108;28;20210;-79
2024/01/10 07:00:31;;;;;;;25.90;23.30;;;;;;;;;;1747126;28;20285;-78
2024/01/10 07:01:22;;;;;;;26.20;23.27;;;;;;;;;;1743864;28;20209;-79
2024/01/10 07:02:17;;;;;;;26.23;23.45;;;;;;;;;;1747144;28;20204;-79
2024/01/10 07:03:08;;;;;;;24.77;22.25;;;;;;;;;;1747832;28;20631;-77
2024/01/10 07:04:00;;;;;;;24.70;22.10;;;;;;;;;;1748410;28;20198;-77
2024/01/10 07:04:51;;;;;;;26.50;23.70;;;;;;;;;;1744759;28;20207;-77
2024/01/10 07:05:44;;;;;;;27.58;23.92;;;;;;;;;;1748408;28;20259;-77
2024/01/10 07:06:39;;;;;;;26.40;23.80;;;;;;;;;;1745075;28;20203;-77
2024/01/10 07:07:30;;;;;;;27.02;24.27;;;;;;;;;;1747900;28;20293;-77
2024/01/10 07:08:27;;;;;;;27.58;24.73;;;;;;;;;;1745979;28;20209;-77
2024/01/10 07:09:19;;;;;;;28.50;25.60;;;;;;;;;;1745636;28;20206;-77
2024/01/10 07:10:10;;;;;;;30.17;27.25;;;;;;;;;;1745415;28;20677;-77
2024/01/10 07:11:04;;;;;;;30.45;27.55;;;;;;;;;;1748324;28;20195;-77
2024/01/10 07:11:56;;;;;;;33.03;29.55;;;;;;;;;;1748098;28;20230;-77
2024/01/10 07:12:49;;;;;;;30.63;27.65;;;;;;;;;;1748137;28;20228;-77
2024/01/10 07:13:40;;;;;;;29.77;26.75;;;;;;;;;;1748606;28;20206;-77
2024/01/10 07:14:32;;;;;;;30.58;27.58;;;;;;;;;;1742246;28;20210;-77
2024/01/10 07:15:24;;;;;;;29.92;27.05;;;;;;;;;;1746791;28;20690;-77
2024/01/10 07:16:16;;;;;;;27.88;25.15;;;;;;;;;;1743693;28;20207;-76
2024/01/10 07:17:09;;;;;;;28.15;25.15;;;;;;;;;;1745763;28;20195;-77
2024/01/10 07:18:02;;;;;;;26.83;24.02;;;;;;;;;;1747233;28;20659;-77
2024/01/10 07:18:54;;;;;;;26.95;24.20;;;;;;;;;;1747827;28;20758;-77
2024/01/10 07:19:48;;;;;;;25.35;22.70;;;;;;;;;;1747236;28;20194;-77
2024/01/10 07:20:40;;;;;;;25.58;22.40;;;;;;;;;;1748400;28;20213;-78
2024/01/10 07:21:31;;;;;;;25.35;22.65;;;;;;;;;;1748167;28;20221;-77
2024/01/10 07:22:26;;;;;;;24.13;21.73;;;;;;;;;;1742685;28;20223;-77
2024/01/10 07:23:18;;;;;;;24.98;22.58;;;;;;;;;;1746377;28;20214;-78
2024/01/10 07:24:11;;;;;;;23.45;21.10;;;;;;;;;;1745087;28;20252;-77
2024/01/10 07:25:05;;;;;;;24.70;22.17;;;;;;;;;;1745088;28;20211;-77
2024/01/10 07:25:57;;;;;;;26.90;22.00;;;;;;;;;;1746636;28;20206;-76
2024/01/10 07:26:49;;;;;;;24.05;21.58;;;;;;;;;;1747881;28;20194;-76
2024/01/10 07:27:41;;;;;;;25.20;22.70;;;;;;;;;;1748054;28;20297;-77
2024/01/10 07:28:32;;;;;;;23.45;20.95;;;;;;;;;;1747980;28;20213;-76
2024/01/10 07:29:25;;;;;;;23.23;20.73;;;;;;;;;;1743713;28;20655;-77
2024/01/10 07:30:17;;;;;;;23.48;20.60;;;;;;;;;;1745657;28;20203;-76
2024/01/10 07:31:18;;;;;;;22.35;20.10;;;;;;;;;;1747383;28;20627;-77
2024/01/10 07:32:11;;;;;;;22.23;19.92;;;;;;;;;;1747772;28;20205;-76
2024/01/10 07:33:04;;;;;;;21.50;19.40;;;;;;;;;;1745480;28;20190;-76
2024/01/10 07:33:59;;;;;;;22.05;19.70;;;;;;;;;;1742436;28;20242;-77
2024/01/10 07:34:51;;;;;;;21.80;19.60;;;;;;;;;;1747208;28;20761;-76
2024/01/10 07:35:42;;;;;;;21.58;19.38;;;;;;;;;;1741074;28;20728;-76
2024/01/10 07:36:37;;;;;;;22.55;19.65;;;;;;;;;;1747721;28;20202;-76
2024/01/10 07:37:32;;;;;;;21.80;19.60;;;;;;;;;;1747530;28;20210;-76
2024/01/10 07:38:24;;;;;;;23.30;20.80;;;;;;;;;;1747641;28;20210;-77
2024/01/10 07:39:18;;;;;;;23.05;20.77;;;;;;;;;;1745886;28;20190;-76
2024/01/10 07:40:10;;;;;;;23.67;21.38;;;;;;;;;;1747867;28;20210;-76
2024/01/10 07:41:02;;;;;;;22.02;19.92;;;;;;;;;;1745930;28;20223;-77
2024/01/10 07:41:55;;;;;;;22.40;20.15;;;;;;;;;;1747698;28;20206;-76
2024/01/10 07:42:47;;;;;;;23.23;20.83;;;;;;;;;;1745215;28;20258;-76
2024/01/10 07:43:39;;;;;;;22.00;19.88;;;;;;;;;;1747081;28;20205;-76
2024/01/10 07:44:33;;;;;;;22.40;20.20;;;;;;;;;;1742030;28;20222;-76
2024/01/10 07:45:25;;;;;;;22.98;20.60;;;;;;;;;;1741245;28;20239;-76
2024/01/10 07:46:16;;;;;;;23.30;20.80;;;;;;;;;;1745182;28;20670;-76
2024/01/10 07:47:08;;;;;;;25.20;20.80;;;;;;;;;;1745367;28;20201;-76
2024/01/10 07:48:00;;;;;;;23.23;20.92;;;;;;;;;;1748956;28;20253;-76
2024/01/10 07:48:53;;;;;;;22.80;20.50;;;;;;;;;;1742755;28;20256;-76
2024/01/10 07:49:46;;;;;;;23.80;21.30;;;;;;;;;;1742646;28;20203;-76
2024/01/10 07:50:37;;;;;;;23.63;21.23;;;;;;;;;;1743847;28;20253;-75
2024/01/10 07:51:31;;;;;;;23.40;21.00;;;;;;;;;;1748129;28;20616;-75
2024/01/10 07:52:22;;;;;;;24.73;21.58;;;;;;;;;;1747222;28;20237;-74
2024/01/10 07:53:13;;;;;;;24.08;21.70;;;;;;;;;;1748820;28;20206;-75
2024/01/10 07:54:05;;;;;;;23.15;20.70;;;;;;;;;;1746728;28;20198;-76
2024/01/10 07:54:57;;;;;;;21.75;19.67;;;;;;;;;;1742017;28;20735;-77
2024/01/10 07:55:48;;;;;;;24.15;21.55;;;;;;;;;;1742398;28;20431;-77
2024/01/10 07:56:41;;;;;;;23.33;21.13;;;;;;;;;;1741987;28;20223;-75
2024/01/10 07:57:33;;;;;;;24.27;21.77;;;;;;;;;;1748758;28;20206;-76
2024/01/10 07:58:24;;;;;;;22.95;20.60;;;;;;;;;;1749138;28;20725;-77
2024/01/10 07:59:17;;;;;;;24.35;21.95;;;;;;;;;;1748191;28;20200;-77
2024/01/10 08:00:10;;;;;;;23.10;20.80;;;;;;;;;;1747647;28;20206;-76
2024/01/10 08:01:02;;;;;;;24.20;21.80;;;;;;;;;;1748978;28;20604;-77
2024/01/10 08:01:58;;;;;;;24.08;21.55;;;;;;;;;;1747288;28;20199;-77
2024/01/10 08:02:50;;;;;;;23.30;20.85;;;;;;;;;;1748778;28;20233;-77
2024/01/10 08:03:42;;;;;;;23.02;20.77;;;;;;;;;;1746281;28;20202;-77
2024/01/10 08:04:34;;;;;;;22.88;20.55;;;;;;;;;;1748828;28;20202;-76
2024/01/10 08:05:25;;;;;;;24.05;21.45;;;;;;;;;;1747496;28;20671;-77
2024/01/10 08:06:17;;;;;;;23.55;21.08;;;;;;;;;;1746787;28;20202;-76
2024/01/10 08:07:08;;;;;;;24.08;21.52;;;;;;;;;;1748872;28;20206;-77
2024/01/10 08:07:59;;;;;;;23.80;21.40;;;;;;;;;;1744419;28;20209;-77
2024/01/10 08:08:51;;;;;;;23.48;21.02;;;;;;;;;;1748945;28;20263;-76
2024/01/10 08:09:43;;;;;;;22.52;20.13;;;;;;;;;;1742926;28;20215;-78
2024/01/10 08:10:35;;;;;;;23.38;20.88;;;;;;;;;;1749000;28;20202;-77
2024/01/10 08:11:26;;;;;;;22.17;19.92;;;;;;;;;;1745204;28;20203;-78
2024/01/10 08:12:17;;;;;;;22.60;20.30;;;;;;;;;;1746757;28;20285;-77
2024/01/10 08:13:09;;;;;;;22.40;20.10;;;;;;;;;;1746774;28;20248;-77
2024/01/10 08:14:00;;;;;;;22.55;20.13;;;;;;;;;;1744795;28;20595;-76
2024/01/10 08:14:51;;;;;;;23.02;20.38;;;;;;;;;;1748277;28;20198;-77
2024/01/10 08:15:44;;;;;;;23.52;21.13;;;;;;;;;;1742482;28;20196;-78
2024/01/10 08:16:35;;;;;;;23.90;20.27;;;;;;;;;;1748950;28;20210;-77
2024/01/10 08:17:26;;;;;;;23.23;20.83;;;;;;;;;;1748393;28;20289;-76
2024/01/10 08:18:18;;;;;;;23.30;20.83;;;;;;;;;;1748750;28;20199;-77
2024/01/10 08:19:10;;;;;;;22.90;20.35;;;;;;;;;;1747082;28;20202;-76
2024/01/10 08:20:03;;;;;;;24.20;21.60;;;;;;;;;;1749004;28;20205;-77
2024/01/10 08:20:56;;;;;;;24.00;21.20;;;;;;;;;;1746982;28;20215;-77
2024/01/10 08:21:47;;;;;;;23.02;20.65;;;;;;;;;;1749139;28;20206;-77
2024/01/10 08:22:40;;;;;;;24.60;22.08;;;;;;;;;;1746958;28;20250;-77
2024/01/10 08:23:31;;;;;;;24.10;21.23;;;;;;;;;;1748631;28;20209;-76
2024/01/10 08:24:24;;;;;;;27.27;21.70;;;;;;;;;;1748406;28;20293;-77
2024/01/10 08:25:15;;;;;;;24.05;20.15;;;;;;;;;;1746071;28;20237;-77
2024/01/10 08:26:08;;;;;;;24.75;22.15;;;;;;;;;;1748867;28;20212;-76
2024/01/10 08:27:00;;;;;;;27.52;23.33;;;;;;;;;;1744466;28;20240;-77
2024/01/10 08:27:53;;;;;;;23.95;21.15;;;;;;;;;;1749196;28;20210;-77
2024/01/10 08:28:44;;;;;;;24.92;22.23;;;;;;;;;;1743750;28;20223;-77
2024/01/10 08:29:36;;;;;;;23.40;20.90;;;;;;;;;;1748133;28;20576;-76
2024/01/10 08:30:27;;;;;;;24.30;21.70;;;;;;;;;;1748764;28;20206;-77
2024/01/10 08:31:19;;;;;;;23.88;21.27;;;;;;;;;;1748519;28;20209;-77
2024/01/10 08:32:11;;;;;;;24.25;21.40;;;;;;;;;;1746734;28;20226;-76
2024/01/10 08:33:04;;;;;;;25.80;22.08;;;;;;;;;;1745524;28;20656;-77
2024/01/10 08:33:57;;;;;;;24.15;21.60;;;;;;;;;;1747996;28;20226;-77
2024/01/10 08:34:48;;;;;;;26.48;22.55;;;;;;;;;;1742241;28;20607;-77
2024/01/10 08:35:43;;;;;;;27.70;21.98;;;;;;;;;;1748897;28;20233;-77
2024/01/10 08:36:35;;;;;;;27.00;22.75;;;;;;;;;;1742080;28;20243;-77
2024/01/10 08:37:26;;;;;;;24.63;22.02;;;;;;;;;;1748116;28;20199;-78
2024/01/10 08:38:18;;;;;;;26.83;21.23;;;;;;;;;;1748397;28;20202;-77
2024/01/10 08:39:11;;;;;;;25.52;22.73;;;;;;;;;;1748556;28;20578;-77
2024/01/10 08:40:07;;;;;;;27.73;23.83;;;;;;;;;;1747802;28;20256;-77
2024/01/10 08:40:58;;;;;;;30.60;23.70;;;;;;;;;;1749070;28;20235;-77
2024/01/10 08:41:50;;;;;;;26.95;23.88;;;;;;;;;;1746679;28;20210;-77
2024/01/10 08:42:42;;;;;;;26.95;23.27;;;;;;;;;;1748895;28;20222;-77
2024/01/10 08:43:33;;;;;;;28.15;24.05;;;;;;;;;;1746943;28;20202;-76
2024/01/10 08:44:25;;;;;;;27.17;24.27;;;;;;;;;;1747680;28;20297;-77
2024/01/10 08:45:16;;;;;;;27.02;23.80;;;;;;;;;;1748751;28;20599;-77
2024/01/10 08:46:07;;;;;;;26.92;24.08;;;;;;;;;;1745238;28;20198;-77
2024/01/10 08:46:59;;;;;;;29.30;23.65;;;;;;;;;;1748848;28;20205;-77
2024/01/10 08:47:50;;;;;;;27.80;24.50;;;;;;;;;;1747027;28;20576;-77
2024/01/10 08:48:42;;;;;;;27.58;23.25;;;;;;;;;;1748791;28;20228;-77
2024/01/10 08:49:34;;;;;;;25.65;22.88;;;;;;;;;;1746084;28;20907;-78
2024/01/10 08:50:25;;;;;;;28.13;24.00;;;;;;;;;;1749450;28;20214;-78
2024/01/10 08:51:18;;;;;;;24.90;22.30;;;;;;;;;;1747004;28;20203;-78
2024/01/10 08:52:10;;;;;;;27.83;23.92;;;;;;;;;;1745738;28;20271;-78
2024/01/10 08:53:04;;;;;;;28.25;22.90;;;;;;;;;;1748490;28;20549;-78
2024/01/10 08:53:57;;;;;;;26.85;23.38;;;;;;;;;;1744055;28;20199;-78
2024/01/10 08:54:48;;;;;;;29.13;25.08;;;;;;;;;;1749270;28;20213;-78
2024/01/10 08:55:39;;;;;;;26.58;23.13;;;;;;;;;;1742921;28;20285;-77
2024/01/10 08:56:31;;;;;;;28.20;24.88;;;;;;;;;;1748998;28;20199;-77
2024/01/10 08:57:22;;;;;;;26.17;23.15;;;;;;;;;;1748175;28;20202;-77
2024/01/10 08:58:14;;;;;;;27.27;24.30;;;;;;;;;;1748966;28;20625;-77
2024/01/10 08:59:06;;;;;;;28.02;25.02;;;;;;;;;;1748349;28;20199;-81
2024/01/10 08:59:57;;;;;;;28.73;25.17;;;;;;;;;;1749140;28;20575;-82
2024/01/10 09:00:49;;;;;;;30.65;25.60;;;;;;;;;;1746399;28;20196;-82
2024/01/10 09:01:41;;;;;;;31.38;26.27;;;;;;;;;;1751641;28;20202;-82
2024/01/10 09:02:36;;;;;;;29.13;25.63;;;;;;;;;;1749411;28;20250;-81
2024/01/10 09:03:27;;;;;;;28.95;25.70;;;;;;;;;;1750079;28;20198;-82
2024/01/10 09:04:20;;;;;;;29.00;25.95;;;;;;;;;;1750251;28;20228;-81
2024/01/10 09:05:11;;;;;;;29.90;26.67;;;;;;;;;;1747571;28;20242;-81
2024/01/10 09:06:03;;;;;;;27.75;24.75;;;;;;;;;;1748842;28;20196;-81
2024/01/10 09:06:57;;;;;;;31.25;26.60;;;;;;;;;;1746600;28;20576;-82
2024/01/10 09:07:48;;;;;;;28.80;25.30;;;;;;;;;;1751311;28;20579;-81
2024/01/10 09:08:40;;;;;;;29.25;24.67;;;;;;;;;;1746207;28;20231;-82
2024/01/10 09:09:31;;;;;;;29.45;25.88;;;;;;;;;;1742598;28;20210;-82
2024/01/10 09:10:23;;;;;;;29.60;25.88;;;;;;;;;;1746876;28;20199;-81
2024/01/10 09:11:15;;;;;;;30.25;26.15;;;;;;;;;;1750840;28;20604;-82
2024/01/10 09:12:06;;;;;;;32.20;26.13;;;;;;;;;;1749051;28;20279;-82
2024/01/10 09:12:59;;;;;;;30.92;26.00;;;;;;;;;;1745899;28;20199;-81
2024/01/10 09:13:51;;;;;;;30.13;26.20;;;;;;;;;;1750255;28;20207;-82
2024/01/10 09:14:42;;;;;;;29.27;26.00;;;;;;;;;;1743635;28;20682;-81
2024/01/10 09:15:34;;;;;;;29.85;25.90;;;;;;;;;;1743641;28;20219;-81
2024/01/10 09:16:25;;;;;;;28.35;25.20;;;;;;;;;;1749574;28;20213;-82
2024/01/10 09:17:17;;;;;;;30.17;25.90;;;;;;;;;;1750822;28;20202;-82
2024/01/10 09:18:08;;;;;;;30.35;24.45;;;;;;;;;;1750642;28;20207;-82
2024/01/10 09:18:59;;;;;;;29.27;26.10;;;;;;;;;;1750281;28;20202;-81
2024/01/10 09:19:52;;;;;;;28.52;25.52;;;;;;;;;;1748155;28;20691;-81
2024/01/10 09:20:43;;;;;;;28.98;25.83;;;;;;;;;;1744259;28;20203;-81
2024/01/10 09:21:34;;;;;;;29.38;25.70;;;;;;;;;;1744930;28;20249;-82
2024/01/10 09:22:28;;;;;;;33.15;26.80;;;;;;;;;;1749351;28;20305;-82
2024/01/10 09:23:19;;;;;;;29.15;24.45;;;;;;;;;;1751145;28;20209;-81
2024/01/10 09:24:11;;;;;;;33.25;26.02;;;;;;;;;;1744682;28;20206;-81
2024/01/10 09:25:04;;;;;;;29.17;25.80;;;;;;;;;;1743799;28;20616;-81
2024/01/10 09:25:55;;;;;;;28.83;24.52;;;;;;;;;;1749651;28;20345;-81
2024/01/10 09:26:47;;;;;;;34.05;25.88;;;;;;;;;;1751343;28;20197;-81
2024/01/10 09:27:40;;;;;;;30.35;25.65;;;;;;;;;;1751215;28;20207;-80
2024/01/10 09:28:31;;;;;;;30.80;26.25;;;;;;;;;;1751220;28;20214;-79
2024/01/10 09:29:23;;;;;;;30.23;25.50;;;;;;;;;;1748007;28;20194;-80
2024/01/10 09:30:16;;;;;;;28.52;25.00;;;;;;;;;;1744098;28;20195;-79
2024/01/10 09:31:08;;;;;;;31.63;25.73;;;;;;;;;;1745370;28;20249;-79
2024/01/10 09:31:59;;;;;;;31.13;25.27;;;;;;;;;;1751252;28;20230;-79
2024/01/10 09:32:52;;;;;;;29.48;25.67;;;;;;;;;;1750968;28;20214;-79
2024/01/10 09:33:43;;;;;;;32.42;25.15;;;;;;;;;;1744465;28;20218;-80
2024/01/10 09:34:35;;;;;;;31.85;26.08;;;;;;;;;;1744050;28;20227;-79
2024/01/10 09:35:26;;;;;;;33.40;25.55;;;;;;;;;;1749769;28;20208;-79
2024/01/10 09:36:17;;;;;;;30.15;26.00;;;;;;;;;;1751241;28;20199;-79
2024/01/10 09:37:09;;;;;;;29.95;26.23;;;;;;;;;;1747548;28;20712;-80
2024/01/10 09:38:01;;;;;;;32.28;25.33;;;;;;;;;;1744502;28;20199;-79
2024/01/10 09:38:53;;;;;;;30.77;26.70;;;;;;;;;;1746899;28;20203;-79
2024/01/10 09:39:45;;;;;;;30.83;27.15;;;;;;;;;;1743439;28;20199;-79
2024/01/10 09:40:37;;;;;;;31.70;25.33;;;;;;;;;;1744994;28;20203;-79
2024/01/10 09:41:28;;;;;;;28.42;25.30;;;;;;;;;;1751005;28;20293;-79
2024/01/10 09:42:25;;;;;;;29.33;24.60;;;;;;;;;;1750809;28;20237;-79
2024/01/10 09:43:16;;;;;;;32.05;24.52;;;;;;;;;;1744413;28;20297;-80
2024/01/10 09:44:08;;;;;;;28.60;24.15;;;;;;;;;;1743959;28;20203;-79
2024/01/10 09:45:00;;;;;;;29.02;24.65;;;;;;;;;;1749816;28;20203;-79
2024/01/10 09:45:52;;;;;;;31.00;24.10;;;;;;;;;;1751257;28;20210;-79
2024/01/10 09:46:45;;;;;;;31.13;24.35;;;;;;;;;;1746820;28;20207;-80
2024/01/10 09:47:36;;;;;;;31.25;24.55;;;;;;;;;;1744148;28;20581;-79
2024/01/10 09:48:29;;;;;;;27.58;23.58;;;;;;;;;;1746959;28;20206;-79
2024/01/10 09:49:21;;;;;;;28.73;24.92;;;;;;;;;;1750648;28;20207;-79
2024/01/10 09:50:14;;;;;;;29.48;24.65;;;;;;;;;;1749539;28;20203;-80
2024/01/10 09:51:05;;;;;;;26.92;23.88;;;;;;;;;;1743837;28;20264;-79
2024/01/10 09:51:59;;;;;;;31.13;26.15;;;;;;;;;;1744157;28;20199;-80
2024/01/10 09:52:52;;;;;;;28.25;25.08;;;;;;;;;;1743949;28;20649;-79
2024/01/10 09:53:49;;;;;;;30.92;25.80;;;;;;;;;;1744487;28;20207;-80
2024/01/10 09:54:42;;;;;;;27.92;24.92;;;;;;;;;;1749349;28;20206;-80
2024/01/10 09:55:35;;;;;;;28.70;24.75;;;;;;;;;;1751340;28;20194;-80
2024/01/10 09:56:27;;;;;;;29.33;24.30;;;;;;;;;;1745617;28;20211;-80
2024/01/10 09:57:18;;;;;;;28.38;23.48;;;;;;;;;;1751503;28;20206;-79
2024/01/10 09:58:10;;;;;;;28.35;25.10;;;;;;;;;;1747341;28;20202;-79
2024/01/10 09:59:04;;;;;;;27.10;22.58;;;;;;;;;;1744328;28;20195;-79
2024/01/10 09:59:55;;;;;;;28.60;25.50;;;;;;;;;;1748065;28;20194;-79
2024/01/10 10:00:47;;;;;;;28.80;24.25;;;;;;;;;;1751288;28;20205;-79
2024/01/10 10:01:39;;;;;;;29.27;25.50;;;;;;;;;;1751426;28;20217;-79
2024/01/10 10:02:31;;;;;;;29.80;25.67;;;;;;;;;;1751330;28;20246;-79
2024/01/10 10:03:22;;;;;;;28.20;24.60;;;;;;;;;;1751061;28;20229;-79
2024/01/10 10:04:13;;;;;;;29.33;25.17;;;;;;;;;;1744155;28;21032;-79
2024/01/10 10:05:09;;;;;;;29.42;26.20;;;;;;;;;;1743711;28;20206;-79
2024/01/10 10:06:00;;;;;;;28.27;24.40;;;;;;;;;;1750449;28;20203;-79
2024/01/10 10:07:00;;;;;;;32.40;26.30;;;;;;;;;;1751077;28;20712;-79
2024/01/10 10:07:53;;;;;;;28.13;23.70;;;;;;;;;;1745273;28;20207;-79
2024/01/10 10:08:46;;;;;;;29.45;24.73;;;;;;;;;;1743574;28;20195;-79
2024/01/10 10:09:37;;;;;;;30.77;27.00;;;;;;;;;;1748093;28;20206;-79
2024/01/10 10:10:28;;;;;;;28.50;24.20;;;;;;;;;;1751332;28;20217;-80
2024/01/10 10:11:20;;;;;;;27.77;24.27;;;;;;;;;;1748252;28;20207;-80
2024/01/10 10:12:12;;;;;;;28.13;23.65;;;;;;;;;;1743954;28;20223;-79
2024/01/10 10:13:03;;;;;;;27.30;24.33;;;;;;;;;;1745339;28;20203;-79
2024/01/10 10:13:55;;;;;;;28.52;24.65;;;;;;;;;;1747541;28;20572;-79
2024/01/10 10:14:46;;;;;;;29.45;26.00;;;;;;;;;;1744713;28;20199;-79
2024/01/10 10:15:38;;;;;;;29.02;25.70;;;;;;;;;;1751089;28;20647;-79
2024/01/10 10:16:30;;;;;;;29.42;25.25;;;;;;;;;;1750907;28;20231;-79
2024/01/10 10:17:21;;;;;;;29.95;24.45;;;;;;;;;;1751107;28;20225;-79
2024/01/10 10:18:15;;;;;;;29.17;24.80;;;;;;;;;;1751056;28;20209;-79
2024/01/10 10:19:06;;;;;;;29.83;25.60;;;;;;;;;;1746463;28;20211;-80
2024/01/10 10:20:04;;;;;;;28.42;25.00;;;;;;;;;;1743892;28;20199;-79
2024/01/10 10:21:09;;;;;;;29.02;24.85;;;;;;;;;;1747576;28;20195;-79
2024/01/10 10:22:08;;;;;;;28.25;25.30;;;;;;;;;;1751780;28;20565;-79
2024/01/10 10:23:01;;;;;;;28.15;25.13;;;;;;;;;;1747580;28;20203;-79
2024/01/10 10:24:00;;;;;;;28.80;25.25;;;;;;;;;;1744487;28;20211;-80
2024/01/10 10:24:53;;;;;;;30.05;25.17;;;;;;;;;;1748484;28;20206;-80
2024/01/10 10:25:45;;;;;;;30.60;25.73;;;;;;;;;;1751224;28;20245;-79
2024/01/10 10:26:36;;;;;;;29.63;24.67;;;;;;;;;;1747761;28;20218;-79
2024/01/10 10:27:29;;;;;;;27.25;24.17;;;;;;;;;;1744634;28;20195;-79
2024/01/10 10:28:20;;;;;;;29.48;26.27;;;;;;;;;;1745711;28;20609;-80
2024/01/10 10:29:12;;;;;;;29.20;26.02;;;;;;;;;;1750169;28;20195;-80
2024/01/10 10:30:03;;;;;;;30.08;25.80;;;;;;;;;;1751718;28;20202;-79
2024/01/10 10:30:54;;;;;;;29.77;25.63;;;;;;;;;;1746179;28;20195;-79
2024/01/10 10:31:49;;;;;;;29.58;25.80;;;;;;;;;;1744678;28;20264;-79
2024/01/10 10:32:40;;;;;;;27.63;24.50;;;;;;;;;;1750571;28;20290;-79
2024/01/10 10:33:33;;;;;;;30.00;24.98;;;;;;;;;;1751427;28;20198;-79
2024/01/10 10:34:25;;;;;;;31.08;26.25;;;;;;;;;;1751647;28;20202;-79
2024/01/10 10:35:16;;;;;;;27.83;25.00;;;;;;;;;;1751393;28;20202;-79
2024/01/10 10:36:07;;;;;;;28.33;25.30;;;;;;;;;;1748413;28;20191;-79
2024/01/10 10:37:00;;;;;;;29.02;25.52;;;;;;;;;;1744716;28;20222;-79
2024/01/10 10:37:51;;;;;;;33.03;25.63;;;;;;;;;;1745809;28;20682;-79
2024/01/10 10:38:43;;;;;;;28.40;25.17;;;;;;;;;;1751261;28;20259;-79
2024/01/10 10:39:37;;;;;;;27.83;24.83;;;;;;;;;;1750940;28;20252;-79
2024/01/10 10:40:28;;;;;;;29.05;25.65;;;;;;;;;;1743847;28;20203;-79
2024/01/10 10:41:21;;;;;;;35.50;27.00;;;;;;;;;;1743633;28;20209;-79
2024/01/10 10:42:13;;;;;;;30.70;26.50;;;;;;;;;;1749820;28;20214;-79
2024/01/10 10:43:05;;;;;;;29.48;25.17;;;;;;;;;;1750526;28;20584;-79
2024/01/10 10:43:57;;;;;;;30.35;25.77;;;;;;;;;;1745321;28;20276;-79
2024/01/10 10:44:48;;;;;;;28.63;25.00;;;;;;;;;;1742567;28;20210;-76
2024/01/10 10:45:40;;;;;;;30.83;26.63;;;;;;;;;;1742929;28;20241;-75
2024/01/10 10:46:33;;;;;;;29.25;24.92;;;;;;;;;;1741154;28;20614;-75
2024/01/10 10:47:25;;;;;;;33.15;26.63;;;;;;;;;;1742927;28;20199;-75
2024/01/10 10:48:17;;;;;;;31.98;25.73;;;;;;;;;;1747314;28;20620;-75
2024/01/10 10:49:13;;;;;;;29.27;25.95;;;;;;;;;;1747161;28;20211;-75
2024/01/10 10:50:04;;;;;;;30.48;27.13;;;;;;;;;;1741210;28;20203;-75
2024/01/10 10:51:03;;;;;;;29.17;25.40;;;;;;;;;;1741024;28;20206;-75
2024/01/10 10:51:57;;;;;;;28.65;25.30;;;;;;;;;;1741117;28;20206;-75
2024/01/10 10:52:48;;;;;;;30.38;26.55;;;;;;;;;;1741070;28;20223;-75
2024/01/10 10:53:41;;;;;;;31.25;26.08;;;;;;;;;;1747107;28;20210;-75
2024/01/10 10:54:33;;;;;;;30.50;26.67;;;;;;;;;;1747886;28;20225;-75
2024/01/10 10:55:28;;;;;;;32.25;26.90;;;;;;;;;;1743020;28;20207;-75
2024/01/10 10:56:19;;;;;;;29.80;25.42;;;;;;;;;;1741096;28;20209;-75
2024/01/10 10:57:11;;;;;;;29.65;26.42;;;;;;;;;;1744682;28;20198;-75
2024/01/10 10:58:04;;;;;;;31.13;26.60;;;;;;;;;;1747973;28;20206;-76
2024/01/10 10:58:55;;;;;;;29.48;26.30;;;;;;;;;;1745272;28;20199;-76
2024/01/10 10:59:48;;;;;;;28.42;25.30;;;;;;;;;;1740341;28;20577;-75
2024/01/10 11:00:39;;;;;;;30.90;27.60;;;;;;;;;;1742029;28;20203;-75
2024/01/10 11:01:32;;;;;;;31.10;25.83;;;;;;;;;;1747802;28;20294;-75
2024/01/10 11:02:24;;;;;;;29.88;25.98;;;;;;;;;;1746534;28;20769;-76
2024/01/10 11:03:16;;;;;;;30.85;26.27;;;;;;;;;;1740880;28;20207;-75